sensor_id;sensor_type;location;lat;lon;timestamp;P1;durP1;ratioP1;P2;durP2;ratioP2
2712;SDS011;1366;47.988;7.856;2023-03-08T05:02:08;10.00;;;8.17;;
2712;SDS011;1366;47.988;7.856;2023-03-08T05:04:35;11.13;;;8.80;;
2712;SDS011;1366;47.988;7.856;2023-03-08T05:07:01;10.60;;;9.00;;
2712;SDS011;1366;47.988;7.856;2023-03-08T05:09:27;11.90;;;9.63;;
2712;SDS011;1366;47.988;7.856;2023-03-08T05:11:53;14.07;;;9.00;;
2712;SDS011;1366;47.988;7.856;2023-03-08T05:14:19;9.17;;;8.20;;
2712;SDS011;1366;47.988;7.856;2023-03-08T05:16:45;8.63;;;7.80;;
2712;SDS011;1366;47.988;7.856;2023-03-08T05:19:11;11.67;;;8.50;;
2712;SDS011;1366;47.988;7.856;2023-03-08T05:21:37;11.17;;;8.33;;
2712;SDS011;1366;47.988;7.856;2023-03-08T05:24:04;9.73;;;7.80;;
2712;SDS011;1366;47.988;7.856;2023-03-08T05:26:30;9.67;;;7.57;;
2712;SDS011;1366;47.988;7.856;2023-03-08T05:28:56;10.20;;;9.20;;
2712;SDS011;1366;47.988;7.856;2023-03-08T05:31:22;10.00;;;7.90;;
2712;SDS011;1366;47.988;7.856;2023-03-08T05:33:49;9.57;;;7.77;;
2712;SDS011;1366;47.988;7.856;2023-03-08T05:36:16;10.53;;;8.37;;
2712;SDS011;1366;47.988;7.856;2023-03-08T05:38:43;9.43;;;7.50;;
2712;SDS011;1366;47.988;7.856;2023-03-08T05:41:13;10.10;;;7.80;;
2712;SDS011;1366;47.988;7.856;2023-03-08T05:43:39;12.83;;;9.33;;
2712;SDS011;1366;47.988;7.856;2023-03-08T05:46:06;10.43;;;8.20;;
2712;SDS011;1366;47.988;7.856;2023-03-08T05:48:33;10.33;;;8.30;;
2712;SDS011;1366;47.988;7.856;2023-03-08T05:51:06;12.27;;;9.00;;
2712;SDS011;1366;47.988;7.856;2023-03-08T05:53:32;13.40;;;8.53;;
2712;SDS011;1366;47.988;7.856;2023-03-08T05:56:15;11.67;;;8.50;;
2712;SDS011;1366;47.988;7.856;2023-03-08T05:58:41;10.33;;;8.53;;
2712;SDS011;1366;47.988;7.856;2023-03-08T06:01:20;11.10;;;8.40;;
2712;SDS011;1366;47.988;7.856;2023-03-08T06:03:48;11.10;;;8.70;;
2712;SDS011;1366;47.988;7.856;2023-03-08T06:06:14;9.93;;;7.90;;
2712;SDS011;1366;47.988;7.856;2023-03-08T06:08:40;10.50;;;8.90;;
2712;SDS011;1366;47.988;7.856;2023-03-08T06:11:06;12.53;;;9.13;;
2712;SDS011;1366;47.988;7.856;2023-03-08T06:13:33;14.20;;;9.33;;
2712;SDS011;1366;47.988;7.856;2023-03-08T06:16:00;12.47;;;9.23;;
2712;SDS011;1366;47.988;7.856;2023-03-08T06:18:26;10.80;;;8.77;;
2712;SDS011;1366;47.988;7.856;2023-03-08T06:23:22;10.47;;;8.07;;
2712;SDS011;1366;47.988;7.856;2023-03-08T06:25:48;9.47;;;8.10;;
2712;SDS011;1366;47.988;7.856;2023-03-08T06:28:14;10.00;;;8.47;;
2712;SDS011;1366;47.988;7.856;2023-03-08T06:30:40;14.00;;;8.90;;
2712;SDS011;1366;47.988;7.856;2023-03-08T06:33:07;11.43;;;8.40;;
2712;SDS011;1366;47.988;7.856;2023-03-08T06:35:33;11.07;;;8.60;;
2712;SDS011;1366;47.988;7.856;2023-03-08T06:37:59;9.20;;;7.70;;
2712;SDS011;1366;47.988;7.856;2023-03-08T06:40:25;9.00;;;7.70;;
2712;SDS011;1366;47.988;7.856;2023-03-08T06:42:51;11.07;;;8.23;;
2712;SDS011;1366;47.988;7.856;2023-03-08T06:45:17;10.33;;;8.63;;
2712;SDS011;1366;47.988;7.856;2023-03-08T06:47:43;10.00;;;8.20;;
2712;SDS011;1366;47.988;7.856;2023-03-08T06:50:09;11.70;;;9.17;;
2712;SDS011;1366;47.988;7.856;2023-03-08T06:52:35;11.10;;;9.20;;
2712;SDS011;1366;47.988;7.856;2023-03-08T06:55:04;11.07;;;8.50;;
2712;SDS011;1366;47.988;7.856;2023-03-08T06:57:31;10.03;;;7.27;;
2712;SDS011;1366;47.988;7.856;2023-03-08T06:59:57;11.70;;;9.13;;
2712;SDS011;1366;47.988;7.856;2023-03-08T07:02:23;11.27;;;8.43;;
2712;SDS011;1366;47.988;7.856;2023-03-08T07:04:49;9.73;;;8.73;;
2712;SDS011;1366;47.988;7.856;2023-03-08T07:07:15;11.93;;;8.93;;
2712;SDS011;1366;47.988;7.856;2023-03-08T07:09:41;12.70;;;9.80;;
2712;SDS011;1366;47.988;7.856;2023-03-08T07:12:07;14.60;;;10.17;;
2712;SDS011;1366;47.988;7.856;2023-03-08T07:14:33;12.17;;;9.10;;
2712;SDS011;1366;47.988;7.856;2023-03-08T07:16:59;11.77;;;8.80;;
2712;SDS011;1366;47.988;7.856;2023-03-08T07:19:25;11.53;;;8.10;;
2712;SDS011;1366;47.988;7.856;2023-03-08T07:21:51;15.33;;;9.33;;
2712;SDS011;1366;47.988;7.856;2023-03-08T07:24:17;9.47;;;8.37;;
2712;SDS011;1366;47.988;7.856;2023-03-08T07:26:43;13.70;;;9.20;;
2712;SDS011;1366;47.988;7.856;2023-03-08T07:29:09;9.67;;;8.67;;
2712;SDS011;1366;47.988;7.856;2023-03-08T07:31:35;12.87;;;8.80;;
2712;SDS011;1366;47.988;7.856;2023-03-08T07:34:02;16.20;;;9.90;;
2712;SDS011;1366;47.988;7.856;2023-03-08T07:36:28;11.13;;;8.90;;
2712;SDS011;1366;47.988;7.856;2023-03-08T07:38:54;11.80;;;9.23;;
2712;SDS011;1366;47.988;7.856;2023-03-08T07:41:20;11.40;;;9.33;;
2712;SDS011;1366;47.988;7.856;2023-03-08T07:43:46;12.60;;;8.80;;
2712;SDS011;1366;47.988;7.856;2023-03-08T07:46:12;13.50;;;10.30;;
2712;SDS011;1366;47.988;7.856;2023-03-08T07:48:38;9.73;;;8.20;;
2712;SDS011;1366;47.988;7.856;2023-03-08T07:51:06;11.70;;;8.67;;
2712;SDS011;1366;47.988;7.856;2023-03-08T07:53:33;6.63;;;5.60;;
2712;SDS011;1366;47.988;7.856;2023-03-08T07:56:00;3.70;;;3.20;;
2712;SDS011;1366;47.988;7.856;2023-03-08T07:58:26;5.03;;;2.53;;
2712;SDS011;1366;47.988;7.856;2023-03-08T08:00:52;3.57;;;2.57;;
2712;SDS011;1366;47.988;7.856;2023-03-08T08:03:18;2.37;;;1.97;;
2712;SDS011;1366;47.988;7.856;2023-03-08T08:05:45;1.83;;;1.73;;
2712;SDS011;1366;47.988;7.856;2023-03-08T08:08:11;2.23;;;2.03;;
2712;SDS011;1366;47.988;7.856;2023-03-08T08:10:40;1.93;;;1.83;;
2712;SDS011;1366;47.988;7.856;2023-03-08T08:13:07;1.83;;;1.73;;
2712;SDS011;1366;47.988;7.856;2023-03-08T08:15:33;2.10;;;2.00;;
2712;SDS011;1366;47.988;7.856;2023-03-08T08:17:59;2.20;;;2.10;;
2712;SDS011;1366;47.988;7.856;2023-03-08T08:20:25;1.80;;;1.70;;
2712;SDS011;1366;47.988;7.856;2023-03-08T08:22:52;1.57;;;1.47;;
2712;SDS011;1366;47.988;7.856;2023-03-08T08:25:19;1.67;;;1.57;;
2712;SDS011;1366;47.988;7.856;2023-03-08T08:27:45;1.50;;;1.40;;
2712;SDS011;1366;47.988;7.856;2023-03-08T08:30:12;1.73;;;1.63;;
2712;SDS011;1366;47.988;7.856;2023-03-08T08:32:38;1.87;;;1.50;;
2712;SDS011;1366;47.988;7.856;2023-03-08T08:35:04;2.03;;;1.83;;
2712;SDS011;1366;47.988;7.856;2023-03-08T08:37:31;1.80;;;1.70;;
2712;SDS011;1366;47.988;7.856;2023-03-08T08:39:58;1.97;;;1.47;;
2712;SDS011;1366;47.988;7.856;2023-03-08T08:42:24;2.30;;;2.20;;
2712;SDS011;1366;47.988;7.856;2023-03-08T08:44:51;1.60;;;1.50;;
2712;SDS011;1366;47.988;7.856;2023-03-08T08:47:17;2.87;;;1.40;;
2712;SDS011;1366;47.988;7.856;2023-03-08T08:49:43;1.60;;;1.50;;
2712;SDS011;1366;47.988;7.856;2023-03-08T08:52:10;2.00;;;1.90;;
2712;SDS011;1366;47.988;7.856;2023-03-08T08:54:36;1.70;;;1.60;;
2712;SDS011;1366;47.988;7.856;2023-03-08T08:57:04;1.70;;;1.60;;
2712;SDS011;1366;47.988;7.856;2023-03-08T08:59:30;1.30;;;1.20;;
2712;SDS011;1366;47.988;7.856;2023-03-08T09:01:56;1.63;;;1.30;;
2712;SDS011;1366;47.988;7.856;2023-03-08T09:04:23;1.50;;;1.40;;
2712;SDS011;1366;47.988;7.856;2023-03-08T09:06:49;1.60;;;1.20;;
2712;SDS011;1366;47.988;7.856;2023-03-08T09:09:16;1.33;;;1.23;;
2712;SDS011;1366;47.988;7.856;2023-03-08T09:11:42;1.43;;;1.27;;
2712;SDS011;1366;47.988;7.856;2023-03-08T09:14:08;1.30;;;1.20;;
2712;SDS011;1366;47.988;7.856;2023-03-08T09:16:34;1.40;;;1.30;;
2712;SDS011;1366;47.988;7.856;2023-03-08T09:19:01;3.03;;;2.83;;
2712;SDS011;1366;47.988;7.856;2023-03-08T09:21:27;3.33;;;1.27;;
2712;SDS011;1366;47.988;7.856;2023-03-08T09:23:54;1.53;;;1.30;;
2712;SDS011;1366;47.988;7.856;2023-03-08T09:26:20;1.57;;;1.47;;
2712;SDS011;1366;47.988;7.856;2023-03-08T09:28:46;1.33;;;1.23;;
2712;SDS011;1366;47.988;7.856;2023-03-08T09:31:13;1.20;;;1.20;;
2712;SDS011;1366;47.988;7.856;2023-03-08T09:33:47;1.40;;;1.30;;
2712;SDS011;1366;47.988;7.856;2023-03-08T09:36:13;1.73;;;1.63;;
2712;SDS011;1366;47.988;7.856;2023-03-08T09:38:40;1.83;;;1.47;;
2712;SDS011;1366;47.988;7.856;2023-03-08T09:46:09;1.63;;;1.53;;
2712;SDS011;1366;47.988;7.856;2023-03-08T09:48:36;1.87;;;1.40;;
2712;SDS011;1366;47.988;7.856;2023-03-08T09:51:03;1.50;;;1.40;;
2712;SDS011;1366;47.988;7.856;2023-03-08T09:53:46;1.60;;;1.50;;
2712;SDS011;1366;47.988;7.856;2023-03-08T09:59:06;1.40;;;1.30;;
2712;SDS011;1366;47.988;7.856;2023-03-08T10:04:27;1.70;;;1.60;;
2712;SDS011;1366;47.988;7.856;2023-03-08T10:09:41;1.83;;;1.50;;
2712;SDS011;1366;47.988;7.856;2023-03-08T10:14:48;1.80;;;1.70;;
2712;SDS011;1366;47.988;7.856;2023-03-08T10:17:22;2.03;;;1.87;;
2712;SDS011;1366;47.988;7.856;2023-03-08T10:22:26;3.00;;;1.73;;
2712;SDS011;1366;47.988;7.856;2023-03-08T10:27:21;3.17;;;2.33;;
2712;SDS011;1366;47.988;7.856;2023-03-08T10:29:51;2.60;;;2.10;;
2712;SDS011;1366;47.988;7.856;2023-03-08T10:32:18;2.43;;;2.23;;
2712;SDS011;1366;47.988;7.856;2023-03-08T10:34:44;2.90;;;2.20;;
2712;SDS011;1366;47.988;7.856;2023-03-08T10:37:10;2.10;;;2.00;;
2712;SDS011;1366;47.988;7.856;2023-03-08T10:39:37;2.50;;;2.20;;
2712;SDS011;1366;47.988;7.856;2023-03-08T10:42:13;2.70;;;2.50;;
2712;SDS011;1366;47.988;7.856;2023-03-08T10:44:44;2.40;;;2.10;;
2712;SDS011;1366;47.988;7.856;2023-03-08T10:47:18;2.23;;;2.10;;
2712;SDS011;1366;47.988;7.856;2023-03-08T10:49:44;2.50;;;2.30;;
2712;SDS011;1366;47.988;7.856;2023-03-08T10:52:19;2.43;;;2.23;;
2712;SDS011;1366;47.988;7.856;2023-03-08T10:54:46;3.53;;;2.87;;
2712;SDS011;1366;47.988;7.856;2023-03-08T10:57:16;2.70;;;2.50;;
2712;SDS011;1366;47.988;7.856;2023-03-08T10:59:47;2.80;;;2.20;;
2712;SDS011;1366;47.988;7.856;2023-03-08T11:02:15;2.60;;;2.40;;
2712;SDS011;1366;47.988;7.856;2023-03-08T11:05:17;3.23;;;2.93;;
2712;SDS011;1366;47.988;7.856;2023-03-08T11:07:35;6.90;;;3.47;;
2712;SDS011;1366;47.988;7.856;2023-03-08T11:10:17;3.90;;;3.60;;
2712;SDS011;1366;47.988;7.856;2023-03-08T11:12:44;3.13;;;2.80;;
2712;SDS011;1366;47.988;7.856;2023-03-08T11:15:14;3.70;;;2.80;;
2712;SDS011;1366;47.988;7.856;2023-03-08T11:17:44;2.60;;;2.40;;
2712;SDS011;1366;47.988;7.856;2023-03-08T11:22:47;3.07;;;2.77;;
2712;SDS011;1366;47.988;7.856;2023-03-08T11:28:16;2.50;;;2.30;;
2712;SDS011;1366;47.988;7.856;2023-03-08T11:35:44;2.30;;;2.20;;
2712;SDS011;1366;47.988;7.856;2023-03-08T11:38:17;2.53;;;2.40;;
2712;SDS011;1366;47.988;7.856;2023-03-08T11:40:51;2.40;;;2.20;;
2712;SDS011;1366;47.988;7.856;2023-03-08T11:43:29;2.00;;;1.90;;
2712;SDS011;1366;47.988;7.856;2023-03-08T11:53:34;2.50;;;2.30;;
2712;SDS011;1366;47.988;7.856;2023-03-08T11:58:36;2.03;;;1.93;;
2712;SDS011;1366;47.988;7.856;2023-03-08T12:01:06;1.90;;;1.80;;
2712;SDS011;1366;47.988;7.856;2023-03-08T12:03:38;1.60;;;1.50;;
2712;SDS011;1366;47.988;7.856;2023-03-08T12:06:09;1.87;;;1.77;;
2712;SDS011;1366;47.988;7.856;2023-03-08T12:08:47;1.90;;;1.80;;
2712;SDS011;1366;47.988;7.856;2023-03-08T12:11:19;2.80;;;1.60;;
2712;SDS011;1366;47.988;7.856;2023-03-08T12:13:47;1.90;;;1.80;;
2712;SDS011;1366;47.988;7.856;2023-03-08T12:18:45;2.00;;;1.80;;
2712;SDS011;1366;47.988;7.856;2023-03-08T12:24:23;1.97;;;1.87;;
2712;SDS011;1366;47.988;7.856;2023-03-08T12:26:36;2.10;;;2.00;;
2712;SDS011;1366;47.988;7.856;2023-03-08T12:29:10;10.13;;;2.63;;
2712;SDS011;1366;47.988;7.856;2023-03-08T12:31:40;1.60;;;1.50;;
2712;SDS011;1366;47.988;7.856;2023-03-08T12:34:41;1.50;;;1.40;;
2712;SDS011;1366;47.988;7.856;2023-03-08T12:36:58;1.27;;;1.20;;
2712;SDS011;1366;47.988;7.856;2023-03-08T12:39:29;1.50;;;1.40;;
2712;SDS011;1366;47.988;7.856;2023-03-08T12:41:56;4.90;;;3.97;;
2712;SDS011;1366;47.988;7.856;2023-03-08T12:44:23;1.40;;;1.30;;
2712;SDS011;1366;47.988;7.856;2023-03-08T12:46:51;1.60;;;1.40;;
2712;SDS011;1366;47.988;7.856;2023-03-08T12:49:29;5.90;;;5.30;;
2712;SDS011;1366;47.988;7.856;2023-03-08T12:52:00;1.57;;;1.47;;
2712;SDS011;1366;47.988;7.856;2023-03-08T12:54:27;1.73;;;1.63;;
2712;SDS011;1366;47.988;7.856;2023-03-08T12:56:53;1.30;;;1.20;;
2712;SDS011;1366;47.988;7.856;2023-03-08T13:01:58;4.03;;;1.50;;
2712;SDS011;1366;47.988;7.856;2023-03-08T13:11:55;1.40;;;1.30;;
2712;SDS011;1366;47.988;7.856;2023-03-08T13:14:27;2.83;;;1.63;;
2712;SDS011;1366;47.988;7.856;2023-03-08T13:17:23;1.40;;;1.30;;
2712;SDS011;1366;47.988;7.856;2023-03-08T13:19:48;1.43;;;1.33;;
2712;SDS011;1366;47.988;7.856;2023-03-08T13:22:17;1.50;;;1.13;;
2712;SDS011;1366;47.988;7.856;2023-03-08T13:24:50;2.17;;;1.60;;
2712;SDS011;1366;47.988;7.856;2023-03-08T13:27:20;1.40;;;1.30;;
2712;SDS011;1366;47.988;7.856;2023-03-08T13:29:49;1.37;;;1.27;;
2712;SDS011;1366;47.988;7.856;2023-03-08T13:32:16;1.33;;;1.23;;
2712;SDS011;1366;47.988;7.856;2023-03-08T13:34:43;1.37;;;1.27;;
2712;SDS011;1366;47.988;7.856;2023-03-08T13:37:24;1.60;;;1.50;;
2712;SDS011;1366;47.988;7.856;2023-03-08T13:39:54;1.30;;;1.20;;
2712;SDS011;1366;47.988;7.856;2023-03-08T13:42:21;1.40;;;1.30;;
2712;SDS011;1366;47.988;7.856;2023-03-08T13:44:52;1.40;;;1.20;;
2712;SDS011;1366;47.988;7.856;2023-03-08T13:47:20;3.30;;;1.40;;
2712;SDS011;1366;47.988;7.856;2023-03-08T13:49:47;1.53;;;1.43;;
2712;SDS011;1366;47.988;7.856;2023-03-08T13:52:33;1.30;;;1.20;;
2712;SDS011;1366;47.988;7.856;2023-03-08T13:55:02;1.30;;;1.20;;
2712;SDS011;1366;47.988;7.856;2023-03-08T13:57:30;2.47;;;1.33;;
2712;SDS011;1366;47.988;7.856;2023-03-08T14:00:01;1.47;;;1.37;;
2712;SDS011;1366;47.988;7.856;2023-03-08T14:02:43;1.23;;;1.03;;
2712;SDS011;1366;47.988;7.856;2023-03-08T14:05:17;1.17;;;1.10;;
2712;SDS011;1366;47.988;7.856;2023-03-08T14:07:54;1.30;;;1.20;;
2712;SDS011;1366;47.988;7.856;2023-03-08T14:10:20;2.10;;;1.20;;
2712;SDS011;1366;47.988;7.856;2023-03-08T14:12:51;1.00;;;1.00;;
2712;SDS011;1366;47.988;7.856;2023-03-08T14:15:17;3.50;;;1.10;;
2712;SDS011;1366;47.988;7.856;2023-03-08T14:17:44;3.40;;;1.70;;
2712;SDS011;1366;47.988;7.856;2023-03-08T14:20:18;1.37;;;1.00;;
2712;SDS011;1366;47.988;7.856;2023-03-08T14:22:48;1.10;;;1.00;;
2712;SDS011;1366;47.988;7.856;2023-03-08T14:27:47;2.60;;;1.23;;
2712;SDS011;1366;47.988;7.856;2023-03-08T14:30:17;1.40;;;1.30;;
2712;SDS011;1366;47.988;7.856;2023-03-08T14:33:03;1.47;;;1.10;;
2712;SDS011;1366;47.988;7.856;2023-03-08T14:35:41;1.10;;;1.00;;
2712;SDS011;1366;47.988;7.856;2023-03-08T14:38:20;0.90;;;0.90;;
2712;SDS011;1366;47.988;7.856;2023-03-08T14:40:47;1.63;;;1.50;;
2712;SDS011;1366;47.988;7.856;2023-03-08T14:43:16;1.40;;;1.30;;
2712;SDS011;1366;47.988;7.856;2023-03-08T14:50:50;1.57;;;1.47;;
2712;SDS011;1366;47.988;7.856;2023-03-08T14:53:28;1.77;;;1.40;;
2712;SDS011;1366;47.988;7.856;2023-03-08T14:55:54;1.53;;;1.43;;
2712;SDS011;1366;47.988;7.856;2023-03-08T14:58:21;1.63;;;1.50;;
2712;SDS011;1366;47.988;7.856;2023-03-08T15:00:52;1.33;;;1.23;;
2712;SDS011;1366;47.988;7.856;2023-03-08T15:03:18;1.50;;;1.40;;
2712;SDS011;1366;47.988;7.856;2023-03-08T15:05:44;1.30;;;1.20;;
2712;SDS011;1366;47.988;7.856;2023-03-08T15:08:11;2.67;;;1.60;;
2712;SDS011;1366;47.988;7.856;2023-03-08T15:10:38;1.50;;;1.40;;
2712;SDS011;1366;47.988;7.856;2023-03-08T15:13:05;2.30;;;1.57;;
2712;SDS011;1366;47.988;7.856;2023-03-08T15:15:32;2.10;;;1.60;;
2712;SDS011;1366;47.988;7.856;2023-03-08T15:17:58;1.73;;;1.63;;
2712;SDS011;1366;47.988;7.856;2023-03-08T15:20:24;1.40;;;1.30;;
2712;SDS011;1366;47.988;7.856;2023-03-08T15:22:51;1.30;;;1.30;;
2712;SDS011;1366;47.988;7.856;2023-03-08T15:25:38;1.10;;;1.00;;
2712;SDS011;1366;47.988;7.856;2023-03-08T15:28:04;1.57;;;1.47;;
2712;SDS011;1366;47.988;7.856;2023-03-08T15:30:30;2.40;;;1.90;;
2712;SDS011;1366;47.988;7.856;2023-03-08T15:32:57;1.20;;;1.20;;
2712;SDS011;1366;47.988;7.856;2023-03-08T15:35:23;1.37;;;1.27;;
2712;SDS011;1366;47.988;7.856;2023-03-08T15:37:49;1.50;;;1.40;;
2712;SDS011;1366;47.988;7.856;2023-03-08T15:40:17;1.60;;;1.50;;
2712;SDS011;1366;47.988;7.856;2023-03-08T15:42:43;1.70;;;1.60;;
2712;SDS011;1366;47.988;7.856;2023-03-08T15:45:10;1.70;;;1.60;;
2712;SDS011;1366;47.988;7.856;2023-03-08T15:47:36;1.37;;;1.27;;
2712;SDS011;1366;47.988;7.856;2023-03-08T15:50:03;1.43;;;1.33;;
2712;SDS011;1366;47.988;7.856;2023-03-08T15:52:29;1.50;;;1.40;;
2712;SDS011;1366;47.988;7.856;2023-03-08T15:54:56;1.87;;;1.60;;
2712;SDS011;1366;47.988;7.856;2023-03-08T15:57:22;1.43;;;1.33;;
2712;SDS011;1366;47.988;7.856;2023-03-08T15:59:48;1.47;;;1.33;;
2712;SDS011;1366;47.988;7.856;2023-03-08T16:02:16;2.20;;;1.30;;
2712;SDS011;1366;47.988;7.856;2023-03-08T16:04:42;1.93;;;1.83;;
2712;SDS011;1366;47.988;7.856;2023-03-08T16:07:14;4.50;;;1.60;;
2712;SDS011;1366;47.988;7.856;2023-03-08T16:09:40;1.37;;;1.30;;
2712;SDS011;1366;47.988;7.856;2023-03-08T16:12:06;1.50;;;1.37;;
2712;SDS011;1366;47.988;7.856;2023-03-08T16:14:32;1.73;;;1.63;;
2712;SDS011;1366;47.988;7.856;2023-03-08T16:16:58;1.40;;;1.30;;
2712;SDS011;1366;47.988;7.856;2023-03-08T16:19:24;1.53;;;1.43;;
2712;SDS011;1366;47.988;7.856;2023-03-08T16:21:50;1.70;;;1.60;;
2712;SDS011;1366;47.988;7.856;2023-03-08T16:24:16;1.60;;;1.50;;
2712;SDS011;1366;47.988;7.856;2023-03-08T16:26:42;1.73;;;1.60;;
2712;SDS011;1366;47.988;7.856;2023-03-08T16:29:08;1.70;;;1.60;;
2712;SDS011;1366;47.988;7.856;2023-03-08T16:31:34;1.60;;;1.50;;
2712;SDS011;1366;47.988;7.856;2023-03-08T16:34:01;1.80;;;1.63;;
2712;SDS011;1366;47.988;7.856;2023-03-08T16:36:27;1.90;;;1.80;;
2712;SDS011;1366;47.988;7.856;2023-03-08T16:38:53;1.70;;;1.60;;
2712;SDS011;1366;47.988;7.856;2023-03-08T16:41:19;2.00;;;1.90;;
2712;SDS011;1366;47.988;7.856;2023-03-08T16:43:48;2.37;;;1.70;;
2712;SDS011;1366;47.988;7.856;2023-03-08T16:46:15;1.60;;;1.50;;
2712;SDS011;1366;47.988;7.856;2023-03-08T16:48:41;1.73;;;1.60;;
2712;SDS011;1366;47.988;7.856;2023-03-08T16:51:09;1.93;;;1.73;;
2712;SDS011;1366;47.988;7.856;2023-03-08T16:53:37;1.90;;;1.70;;
2712;SDS011;1366;47.988;7.856;2023-03-08T16:56:04;1.50;;;1.40;;
2712;SDS011;1366;47.988;7.856;2023-03-08T16:58:30;1.53;;;1.43;;
2712;SDS011;1366;47.988;7.856;2023-03-08T17:00:56;1.87;;;1.77;;
2712;SDS011;1366;47.988;7.856;2023-03-08T17:03:22;1.93;;;1.60;;
2712;SDS011;1366;47.988;7.856;2023-03-08T17:05:48;1.77;;;1.67;;
2712;SDS011;1366;47.988;7.856;2023-03-08T17:08:15;1.77;;;1.60;;
2712;SDS011;1366;47.988;7.856;2023-03-08T17:10:43;2.10;;;1.90;;
2712;SDS011;1366;47.988;7.856;2023-03-08T17:13:10;1.63;;;1.50;;
2712;SDS011;1366;47.988;7.856;2023-03-08T17:15:37;1.40;;;1.30;;
2712;SDS011;1366;47.988;7.856;2023-03-08T17:18:03;1.80;;;1.70;;
2712;SDS011;1366;47.988;7.856;2023-03-08T17:20:30;1.93;;;1.83;;
2712;SDS011;1366;47.988;7.856;2023-03-08T17:22:56;1.87;;;1.70;;
2712;SDS011;1366;47.988;7.856;2023-03-08T17:25:22;1.70;;;1.60;;
2712;SDS011;1366;47.988;7.856;2023-03-08T17:27:49;2.50;;;1.47;;
2712;SDS011;1366;47.988;7.856;2023-03-08T17:30:15;2.40;;;1.40;;
2712;SDS011;1366;47.988;7.856;2023-03-08T17:32:41;1.53;;;1.43;;
2712;SDS011;1366;47.988;7.856;2023-03-08T17:35:07;1.60;;;1.40;;
2712;SDS011;1366;47.988;7.856;2023-03-08T17:37:34;2.23;;;1.70;;
2712;SDS011;1366;47.988;7.856;2023-03-08T17:40:06;1.37;;;1.27;;
2712;SDS011;1366;47.988;7.856;2023-03-08T17:42:33;2.00;;;1.60;;
2712;SDS011;1366;47.988;7.856;2023-03-08T17:45:00;1.00;;;1.00;;
2712;SDS011;1366;47.988;7.856;2023-03-08T17:47:30;1.30;;;1.20;;
2712;SDS011;1366;47.988;7.856;2023-03-08T17:49:56;1.33;;;1.23;;
2712;SDS011;1366;47.988;7.856;2023-03-08T17:52:22;1.30;;;1.20;;
2712;SDS011;1366;47.988;7.856;2023-03-08T17:54:48;1.40;;;1.30;;
2712;SDS011;1366;47.988;7.856;2023-03-08T17:57:14;1.43;;;1.33;;
2712;SDS011;1366;47.988;7.856;2023-03-08T17:59:45;1.47;;;1.37;;
2712;SDS011;1366;47.988;7.856;2023-03-08T18:02:11;1.40;;;1.30;;
2712;SDS011;1366;47.988;7.856;2023-03-08T18:04:40;1.80;;;1.70;;
2712;SDS011;1366;47.988;7.856;2023-03-08T18:07:07;1.43;;;1.30;;
2712;SDS011;1366;47.988;7.856;2023-03-08T18:09:34;2.00;;;1.90;;
2712;SDS011;1366;47.988;7.856;2023-03-08T18:12:00;1.60;;;1.50;;
2712;SDS011;1366;47.988;7.856;2023-03-08T18:14:29;2.70;;;2.50;;
2712;SDS011;1366;47.988;7.856;2023-03-08T18:16:55;1.83;;;1.73;;
2712;SDS011;1366;47.988;7.856;2023-03-08T18:19:22;1.70;;;1.60;;
2712;SDS011;1366;47.988;7.856;2023-03-08T18:21:48;1.70;;;1.60;;
2712;SDS011;1366;47.988;7.856;2023-03-08T18:24:18;1.70;;;1.60;;
2712;SDS011;1366;47.988;7.856;2023-03-08T18:26:44;1.97;;;1.87;;
2712;SDS011;1366;47.988;7.856;2023-03-08T18:29:10;1.70;;;1.60;;
2712;SDS011;1366;47.988;7.856;2023-03-08T18:31:39;5.30;;;4.37;;
2712;SDS011;1366;47.988;7.856;2023-03-08T18:34:05;2.50;;;1.87;;
2712;SDS011;1366;47.988;7.856;2023-03-08T18:36:32;1.73;;;1.60;;
2712;SDS011;1366;47.988;7.856;2023-03-08T18:38:58;3.07;;;2.30;;
2712;SDS011;1366;47.988;7.856;2023-03-08T18:41:26;2.20;;;2.10;;
2712;SDS011;1366;47.988;7.856;2023-03-08T18:43:55;2.10;;;1.90;;
2712;SDS011;1366;47.988;7.856;2023-03-08T18:46:22;2.70;;;2.50;;
2712;SDS011;1366;47.988;7.856;2023-03-08T18:49:05;1.83;;;1.73;;
2712;SDS011;1366;47.988;7.856;2023-03-08T18:51:33;1.97;;;1.87;;
2712;SDS011;1366;47.988;7.856;2023-03-08T18:54:00;1.77;;;1.67;;
2712;SDS011;1366;47.988;7.856;2023-03-08T18:56:26;2.20;;;1.83;;
2712;SDS011;1366;47.988;7.856;2023-03-08T18:58:53;1.93;;;1.83;;
2712;SDS011;1366;47.988;7.856;2023-03-08T19:01:19;2.77;;;2.10;;
2712;SDS011;1366;47.988;7.856;2023-03-08T19:03:46;3.30;;;2.20;;
2712;SDS011;1366;47.988;7.856;2023-03-08T19:06:12;2.53;;;2.33;;
2712;SDS011;1366;47.988;7.856;2023-03-08T19:08:39;2.63;;;2.50;;
2712;SDS011;1366;47.988;7.856;2023-03-08T19:11:11;2.30;;;2.20;;
2712;SDS011;1366;47.988;7.856;2023-03-08T19:13:38;3.30;;;2.20;;
2712;SDS011;1366;47.988;7.856;2023-03-08T19:16:04;1.90;;;1.80;;
2712;SDS011;1366;47.988;7.856;2023-03-08T19:18:31;2.27;;;2.17;;
2712;SDS011;1366;47.988;7.856;2023-03-08T19:20:57;2.10;;;1.90;;
2712;SDS011;1366;47.988;7.856;2023-03-08T19:23:23;2.53;;;1.77;;
2712;SDS011;1366;47.988;7.856;2023-03-08T19:25:49;1.97;;;1.87;;
2712;SDS011;1366;47.988;7.856;2023-03-08T19:28:34;3.23;;;2.50;;
2712;SDS011;1366;47.988;7.856;2023-03-08T19:31:00;1.90;;;1.80;;
2712;SDS011;1366;47.988;7.856;2023-03-08T19:33:27;2.20;;;2.00;;
2712;SDS011;1366;47.988;7.856;2023-03-08T19:35:53;2.80;;;2.60;;
2712;SDS011;1366;47.988;7.856;2023-03-08T19:38:19;2.40;;;2.23;;
2712;SDS011;1366;47.988;7.856;2023-03-08T19:40:45;2.10;;;2.00;;
2712;SDS011;1366;47.988;7.856;2023-03-08T19:43:11;2.00;;;1.90;;
2712;SDS011;1366;47.988;7.856;2023-03-08T19:45:37;2.33;;;2.00;;
2712;SDS011;1366;47.988;7.856;2023-03-08T19:48:03;3.00;;;2.80;;
2712;SDS011;1366;47.988;7.856;2023-03-08T19:50:29;2.57;;;2.00;;
2712;SDS011;1366;47.988;7.856;2023-03-08T19:52:55;5.63;;;2.30;;
2712;SDS011;1366;47.988;7.856;2023-03-08T19:55:21;3.63;;;1.77;;
2712;SDS011;1366;47.988;7.856;2023-03-08T19:57:47;2.40;;;2.20;;
2712;SDS011;1366;47.988;7.856;2023-03-08T20:00:13;2.70;;;2.50;;
2712;SDS011;1366;47.988;7.856;2023-03-08T20:02:39;2.57;;;2.30;;
2712;SDS011;1366;47.988;7.856;2023-03-08T20:05:09;2.40;;;2.03;;
2712;SDS011;1366;47.988;7.856;2023-03-08T20:07:35;2.40;;;2.10;;
2712;SDS011;1366;47.988;7.856;2023-03-08T20:10:01;2.23;;;2.03;;
2712;SDS011;1366;47.988;7.856;2023-03-08T20:12:28;3.07;;;1.93;;
2712;SDS011;1366;47.988;7.856;2023-03-08T20:14:54;2.40;;;2.20;;
2712;SDS011;1366;47.988;7.856;2023-03-08T20:17:21;4.43;;;1.90;;
2712;SDS011;1366;47.988;7.856;2023-03-08T20:19:48;3.13;;;2.00;;
2712;SDS011;1366;47.988;7.856;2023-03-08T20:22:14;4.50;;;2.30;;
2712;SDS011;1366;47.988;7.856;2023-03-08T20:24:40;2.50;;;2.07;;
2712;SDS011;1366;47.988;7.856;2023-03-08T20:27:06;2.13;;;2.03;;
2712;SDS011;1366;47.988;7.856;2023-03-08T20:29:32;2.23;;;2.03;;
2712;SDS011;1366;47.988;7.856;2023-03-08T20:31:58;4.03;;;2.20;;
2712;SDS011;1366;47.988;7.856;2023-03-08T20:34:24;5.53;;;2.77;;
2712;SDS011;1366;47.988;7.856;2023-03-08T20:36:51;3.80;;;2.70;;
2712;SDS011;1366;47.988;7.856;2023-03-08T20:39:17;2.10;;;1.83;;
2712;SDS011;1366;47.988;7.856;2023-03-08T20:41:45;1.93;;;1.83;;
2712;SDS011;1366;47.988;7.856;2023-03-08T20:44:11;3.33;;;2.23;;
2712;SDS011;1366;47.988;7.856;2023-03-08T20:46:37;2.33;;;1.90;;
2712;SDS011;1366;47.988;7.856;2023-03-08T20:49:03;3.50;;;2.20;;
2712;SDS011;1366;47.988;7.856;2023-03-08T20:51:29;8.90;;;2.10;;
2712;SDS011;1366;47.988;7.856;2023-03-08T20:53:55;2.87;;;2.47;;
2712;SDS011;1366;47.988;7.856;2023-03-08T20:56:22;2.50;;;2.20;;
2712;SDS011;1366;47.988;7.856;2023-03-08T20:58:48;2.60;;;2.10;;
2712;SDS011;1366;47.988;7.856;2023-03-08T21:01:19;6.70;;;2.40;;
2712;SDS011;1366;47.988;7.856;2023-03-08T21:03:46;2.50;;;2.30;;
2712;SDS011;1366;47.988;7.856;2023-03-08T21:06:16;2.43;;;2.23;;
2712;SDS011;1366;47.988;7.856;2023-03-08T21:08:43;9.43;;;2.57;;
2712;SDS011;1366;47.988;7.856;2023-03-08T21:11:10;3.07;;;2.27;;
2712;SDS011;1366;47.988;7.856;2023-03-08T21:13:36;5.03;;;2.50;;
2712;SDS011;1366;47.988;7.856;2023-03-08T21:16:03;2.60;;;2.40;;
2712;SDS011;1366;47.988;7.856;2023-03-08T21:18:29;2.40;;;2.20;;
2712;SDS011;1366;47.988;7.856;2023-03-08T21:20:55;3.03;;;2.53;;
2712;SDS011;1366;47.988;7.856;2023-03-08T21:23:22;2.50;;;2.30;;
2712;SDS011;1366;47.988;7.856;2023-03-08T21:25:49;5.33;;;2.23;;